Time;durP1;ratioP1;P1;durP2;ratioP2;P2;SDS_P1;SDS_P2;PMS_P1;PMS_P2;Temp;Humidity;BMP_temperature;BMP_pressure;BME280_temperature;BME280_humidity;BME280_pressure;Samples;Min_cycle;Max_cycle;Signal;HPM_P1;HPM_P2
2022/09/29 00:01:18;;;;;;;8.35;4.60;;;8.60;99.90;;;;;;5092315;28;20877;-71
2022/09/29 00:03:47;;;;;;;7.85;5.22;;;8.60;99.90;;;;;;5092130;28;20238;-70
2022/09/29 00:06:17;;;;;;;11.50;6.68;;;8.60;99.90;;;;;;5092417;28;20219;-71
2022/09/29 00:08:46;;;;;;;7.45;5.40;;;8.50;99.90;;;;;;5092229;28;20753;-70
2022/09/29 00:11:17;;;;;;;11.48;5.35;;;8.50;99.90;;;;;;5092133;28;20190;-72
2022/09/29 00:13:46;;;;;;;9.70;6.38;;;8.40;99.90;;;;;;5092404;28;20715;-70
2022/09/29 00:16:17;;;;;;;6.10;4.90;;;8.40;99.90;;;;;;5092562;28;20270;-71
2022/09/29 00:18:45;;;;;;;8.27;4.82;;;8.30;99.90;;;;;;5088582;28;20215;-71
2022/09/29 00:21:18;;;;;;;8.55;6.07;;;8.20;99.90;;;;;;5080966;28;20490;-71
2022/09/29 00:23:48;;;;;;;11.98;6.75;;;8.20;99.90;;;;;;5089614;28;20191;-70
2022/09/29 00:26:19;;;;;;;9.20;5.43;;;8.20;99.90;;;;;;5096487;28;20674;-71
2022/09/29 00:28:51;;;;;;;10.18;6.65;;;8.20;99.90;;;;;;5097330;28;20620;-71
2022/09/29 00:31:22;;;;;;;7.35;5.97;;;8.20;99.90;;;;;;5096084;28;20245;-70
2022/09/29 00:33:51;;;;;;;10.55;7.28;;;8.30;99.90;;;;;;5096223;28;20203;-71
2022/09/29 00:36:21;;;;;;;11.25;6.85;;;8.40;99.90;;;;;;5097594;28;20260;-70
2022/09/29 00:38:51;;;;;;;13.45;6.28;;;8.30;99.90;;;;;;5087032;28;20196;-70
2022/09/29 00:41:23;;;;;;;15.43;6.53;;;8.30;99.90;;;;;;5097714;28;20515;-70
2022/09/29 00:43:59;;;;;;;10.82;6.40;;;8.30;99.90;;;;;;5087489;28;20590;-71
2022/09/29 00:46:36;;;;;;;10.25;5.82;;;8.30;99.90;;;;;;5091639;28;20218;-70
2022/09/29 00:49:12;;;;;;;9.05;6.05;;;8.20;99.90;;;;;;5090756;28;20238;-70
2022/09/29 00:51:45;;;;;;;8.10;5.57;;;8.30;99.90;;;;;;5091872;28;20245;-70
2022/09/29 00:54:14;;;;;;;9.10;5.75;;;8.20;99.90;;;;;;5090038;28;20211;-71
2022/09/29 00:56:44;;;;;;;10.57;7.00;;;8.20;99.90;;;;;;5086262;28;20195;-70
2022/09/29 00:59:18;;;;;;;11.80;6.45;;;8.00;99.90;;;;;;5082618;28;20669;-71
2022/09/29 01:01:48;;;;;;;11.27;6.15;;;7.90;99.90;;;;;;5090130;28;20191;-71
2022/09/29 01:04:21;;;;;;;9.85;6.25;;;7.70;99.90;;;;;;5091971;28;20211;-70
2022/09/29 01:06:53;;;;;;;8.27;6.07;;;7.60;99.90;;;;;;5091551;28;20219;-70
2022/09/29 01:09:26;;;;;;;10.00;6.32;;;7.60;99.90;;;;;;5085580;28;20188;-71
2022/09/29 01:11:57;;;;;;;8.63;6.68;;;7.60;99.90;;;;;;5091662;28;20193;-71
2022/09/29 01:14:26;;;;;;;8.40;5.95;;;7.60;99.90;;;;;;5091595;28;20215;-71
2022/09/29 01:16:56;;;;;;;8.77;5.35;;;7.60;99.90;;;;;;5091483;28;20191;-71
2022/09/29 01:19:44;;;;;;;9.95;5.82;;;7.60;99.90;;;;;;5090876;28;20673;-71
2022/09/29 01:22:27;;;;;;;7.03;5.82;;;7.60;99.90;;;;;;5085394;28;20192;-71
2022/09/29 01:25:03;;;;;;;10.18;6.10;;;7.70;99.90;;;;;;5084250;28;20203;-71
2022/09/29 01:28:03;;;;;;;7.38;5.53;;;7.50;99.90;;;;;;5078226;28;20198;-70
2022/09/29 01:30:50;;;;;;;14.45;6.65;;;7.60;99.90;;;;;;5092230;28;20188;-70
2022/09/29 01:33:29;;;;;;;15.60;6.68;;;7.60;99.90;;;;;;5072050;28;20172;-70
2022/09/29 01:36:05;;;;;;;10.25;5.80;;;7.60;99.90;;;;;;5081378;28;20207;-70
2022/09/29 01:38:50;;;;;;;9.15;6.35;;;7.60;99.90;;;;;;5090551;28;20221;-71
2022/09/29 01:41:28;;;;;;;14.48;7.22;;;7.50;99.90;;;;;;5091070;28;20558;-69
2022/09/29 01:44:02;;;;;;;7.55;5.65;;;7.50;99.90;;;;;;5070608;28;20210;-70
2022/09/29 01:46:36;;;;;;;12.63;8.23;;;7.50;99.90;;;;;;5078851;28;20194;-69
2022/09/29 01:49:06;;;;;;;7.10;5.57;;;7.50;99.90;;;;;;5085046;28;20210;-70
2022/09/29 01:51:41;;;;;;;16.05;7.30;;;7.50;99.90;;;;;;5092213;28;20191;-70
2022/09/29 01:54:15;;;;;;;9.73;7.10;;;7.40;99.90;;;;;;5091824;28;20191;-70
2022/09/29 01:56:51;;;;;;;9.45;6.53;;;7.40;99.90;;;;;;5090523;28;20247;-70
2022/09/29 01:59:23;;;;;;;10.23;6.75;;;7.40;99.90;;;;;;5087858;28;20620;-69
2022/09/29 02:01:59;;;;;;;8.20;6.57;;;7.50;99.90;;;;;;5089569;28;20191;-70
2022/09/29 02:04:32;;;;;;;7.80;5.32;;;7.50;99.90;;;;;;5089982;28;20250;-70
2022/09/29 02:07:06;;;;;;;12.88;7.93;;;7.60;99.90;;;;;;5091858;28;20289;-69
2022/09/29 02:09:39;;;;;;;8.70;7.10;;;7.60;99.90;;;;;;5078008;28;20570;-70
2022/09/29 02:12:13;;;;;;;11.02;7.72;;;7.60;99.90;;;;;;5085799;28;20275;-70
2022/09/29 02:14:45;;;;;;;10.93;6.97;;;7.60;99.90;;;;;;5091534;28;20218;-71
2022/09/29 02:17:19;;;;;;;9.85;6.80;;;7.70;99.90;;;;;;5091538;28;20192;-70
2022/09/29 02:19:50;;;;;;;9.90;7.78;;;7.70;99.90;;;;;;5085069;28;20601;-70
2022/09/29 02:22:19;;;;;;;8.48;7.03;;;7.80;99.90;;;;;;5091393;28;20533;-71
2022/09/29 02:24:51;;;;;;;9.85;7.00;;;7.80;99.90;;;;;;5091458;28;20203;-71
2022/09/29 02:27:21;;;;;;;15.68;8.43;;;7.90;99.90;;;;;;5090060;28;20681;-71
2022/09/29 02:29:49;;;;;;;15.10;7.88;;;8.00;99.90;;;;;;5091500;28;20183;-70
2022/09/29 02:32:20;;;;;;;15.15;9.60;;;8.10;99.90;;;;;;5091492;28;20195;-70
2022/09/29 02:34:51;;;;;;;11.90;8.18;;;8.10;99.90;;;;;;5091367;28;20275;-70
2022/09/29 02:37:31;;;;;;;10.65;7.55;;;8.10;99.90;;;;;;5091122;28;20186;-70
2022/09/29 02:40:10;;;;;;;9.77;7.22;;;8.20;99.90;;;;;;5091218;28;20191;-70
2022/09/29 02:42:45;;;;;;;12.60;7.68;;;8.20;99.90;;;;;;5082691;28;20198;-70
2022/09/29 02:45:37;;;;;;;14.45;8.30;;;8.40;99.90;;;;;;5091182;28;20560;-70
2022/09/29 02:48:26;;;;;;;13.77;7.78;;;8.40;99.90;;;;;;5091322;28;20199;-69
2022/09/29 02:51:16;;;;;;;9.50;6.60;;;8.40;99.90;;;;;;5091717;28;20182;-70
2022/09/29 02:53:58;;;;;;;13.90;7.53;;;8.50;99.90;;;;;;5091748;28;20262;-70
2022/09/29 02:56:36;;;;;;;16.02;8.00;;;8.60;99.90;;;;;;5090916;28;20237;-70
2022/09/29 02:59:08;;;;;;;13.77;7.95;;;8.60;99.90;;;;;;5090303;28;20187;-70
2022/09/29 03:01:48;;;;;;;14.95;8.35;;;8.70;99.90;;;;;;5087995;28;20191;-70
2022/09/29 03:04:19;;;;;;;13.38;10.07;;;8.80;99.90;;;;;;5091183;28;20574;-71
2022/09/29 03:06:48;;;;;;;11.70;8.07;;;8.80;99.90;;;;;;5071024;28;20187;-71
2022/09/29 03:09:16;;;;;;;13.02;8.85;;;8.80;99.90;;;;;;5079046;28;20188;-70
2022/09/29 03:11:46;;;;;;;15.40;9.23;;;8.80;99.90;;;;;;5090823;28;20187;-70
2022/09/29 03:14:14;;;;;;;13.85;8.60;;;8.90;99.90;;;;;;5083958;28;20541;-70
2022/09/29 03:16:43;;;;;;;9.77;7.43;;;8.80;99.90;;;;;;5079102;28;20203;-70
2022/09/29 03:19:12;;;;;;;10.20;7.43;;;8.90;99.90;;;;;;5079766;28;20237;-70
2022/09/29 03:21:41;;;;;;;13.48;8.55;;;8.90;99.90;;;;;;5091072;28;20237;-70
2022/09/29 03:24:10;;;;;;;14.37;9.10;;;8.90;99.90;;;;;;5087389;28;20208;-70
2022/09/29 03:26:38;;;;;;;15.40;9.48;;;8.90;99.90;;;;;;5088917;28;20424;-69
2022/09/29 03:29:07;;;;;;;14.15;8.43;;;8.90;99.90;;;;;;5088596;28;20191;-69
2022/09/29 03:31:35;;;;;;;12.38;7.65;;;8.90;99.90;;;;;;5077641;28;20210;-71
2022/09/29 03:34:04;;;;;;;7.75;6.95;;;8.90;99.90;;;;;;5087177;28;20219;-70
2022/09/29 03:36:32;;;;;;;15.60;9.10;;;8.90;99.90;;;;;;5090243;28;20545;-71
2022/09/29 03:39:02;;;;;;;13.40;9.37;;;8.90;99.90;;;;;;5088961;28;20210;-69
2022/09/29 03:41:31;;;;;;;18.63;9.07;;;8.90;99.90;;;;;;5090384;28;20715;-70
2022/09/29 03:44:00;;;;;;;13.75;8.07;;;8.90;99.90;;;;;;5090597;28;20218;-70
2022/09/29 03:46:28;;;;;;;14.60;8.03;;;9.00;99.90;;;;;;5090486;28;20195;-70
2022/09/29 03:48:56;;;;;;;14.80;8.17;;;9.00;99.90;;;;;;5089734;28;20420;-70
2022/09/29 03:51:25;;;;;;;16.40;8.93;;;9.10;99.90;;;;;;5088493;28;20400;-70
2022/09/29 03:53:54;;;;;;;15.77;7.82;;;9.10;99.90;;;;;;5090041;28;20433;-69
2022/09/29 03:56:24;;;;;;;13.70;8.55;;;9.00;99.90;;;;;;5090703;28;20206;-70
2022/09/29 03:58:53;;;;;;;11.30;9.45;;;8.90;99.90;;;;;;5093536;28;20719;-70
2022/09/29 04:01:21;;;;;;;11.68;8.07;;;8.90;99.90;;;;;;5093650;28;20220;-71
2022/09/29 04:03:50;;;;;;;12.75;7.93;;;8.90;99.90;;;;;;5093635;28;20276;-70
2022/09/29 04:06:18;;;;;;;12.35;8.40;;;9.00;99.90;;;;;;5093885;28;20709;-71
2022/09/29 04:08:48;;;;;;;10.57;8.00;;;9.00;99.90;;;;;;5094052;28;20191;-69
2022/09/29 04:11:16;;;;;;;12.52;9.55;;;9.00;99.90;;;;;;5087267;28;20431;-70
2022/09/29 04:13:46;;;;;;;11.77;8.87;;;9.00;99.90;;;;;;5093916;28;20682;-70
2022/09/29 04:16:14;;;;;;;11.20;7.93;;;9.10;99.90;;;;;;5093373;28;20864;-70
2022/09/29 04:18:43;;;;;;;12.02;9.10;;;9.20;99.90;;;;;;5092166;28;20437;-70
2022/09/29 04:21:12;;;;;;;13.33;10.07;;;9.10;99.90;;;;;;5081787;28;20578;-69
2022/09/29 04:23:41;;;;;;;11.38;8.73;;;9.10;99.90;;;;;;5092680;28;20557;-71
2022/09/29 04:26:09;;;;;;;11.32;8.75;;;9.00;99.90;;;;;;5075921;28;20641;-70
2022/09/29 04:28:38;;;;;;;14.20;9.85;;;8.90;99.90;;;;;;5086132;28;20221;-71
2022/09/29 04:31:09;;;;;;;10.70;8.55;;;8.90;99.90;;;;;;5097743;28;20600;-69
2022/09/29 04:33:38;;;;;;;11.85;9.65;;;8.90;99.90;;;;;;5094931;28;20195;-71
2022/09/29 04:36:06;;;;;;;12.15;9.38;;;9.00;99.90;;;;;;5086561;28;20214;-71
2022/09/29 04:38:35;;;;;;;10.82;9.50;;;9.00;99.90;;;;;;5087827;28;20184;-70
2022/09/29 04:41:03;;;;;;;10.10;7.63;;;9.10;99.90;;;;;;5087554;28;20187;-70
2022/09/29 04:43:32;;;;;;;13.60;8.77;;;9.10;99.90;;;;;;5097117;28;20199;-70
2022/09/29 04:46:05;;;;;;;12.63;10.10;;;9.10;99.90;;;;;;5094970;28;20458;-71
2022/09/29 04:48:36;;;;;;;11.13;7.80;;;9.10;99.90;;;;;;5093600;28;20803;-70
2022/09/29 04:51:05;;;;;;;11.32;7.72;;;9.10;99.90;;;;;;5088479;28;20441;-71
2022/09/29 04:53:34;;;;;;;12.93;10.23;;;9.20;99.90;;;;;;5080592;28;20191;-71
2022/09/29 04:56:06;;;;;;;12.63;9.77;;;9.10;99.90;;;;;;5081998;28;20478;-70
2022/09/29 04:58:35;;;;;;;15.20;9.03;;;9.20;99.90;;;;;;5086519;28;20201;-71
2022/09/29 05:01:07;;;;;;;11.53;8.77;;;9.20;99.90;;;;;;5094612;28;20422;-71
2022/09/29 05:03:37;;;;;;;16.37;9.37;;;9.20;99.90;;;;;;5092161;28;20512;-70
2022/09/29 05:06:07;;;;;;;12.77;7.75;;;9.20;99.90;;;;;;5092218;28;20431;-70
2022/09/29 05:08:36;;;;;;;14.43;9.80;;;9.30;99.90;;;;;;5097801;28;20195;-70
2022/09/29 05:11:06;;;;;;;15.32;9.82;;;9.20;99.90;;;;;;5094476;28;20210;-71
2022/09/29 05:13:34;;;;;;;15.10;9.83;;;9.20;99.90;;;;;;5091589;28;20219;-71
2022/09/29 05:16:03;;;;;;;12.32;8.50;;;9.30;99.90;;;;;;5085020;28;20441;-70
2022/09/29 05:18:33;;;;;;;11.53;8.37;;;9.20;99.90;;;;;;5097462;28;20191;-69
2022/09/29 05:21:07;;;;;;;13.75;9.70;;;9.30;99.90;;;;;;5091964;28;20411;-70
2022/09/29 05:23:55;;;;;;;13.20;9.13;;;9.20;99.90;;;;;;5080836;28;20328;-70
2022/09/29 05:26:23;;;;;;;13.97;10.33;;;9.30;99.90;;;;;;5091833;28;20431;-70
2022/09/29 05:28:52;;;;;;;13.97;9.53;;;9.30;99.90;;;;;;5092236;28;20400;-70
2022/09/29 05:31:20;;;;;;;21.10;10.57;;;9.40;99.90;;;;;;5092051;28;20429;-70
2022/09/29 05:33:49;;;;;;;14.20;11.07;;;9.40;99.90;;;;;;5085150;28;20420;-70
2022/09/29 05:36:19;;;;;;;17.87;9.20;;;9.40;99.90;;;;;;5090267;28;20423;-70
2022/09/29 05:38:47;;;;;;;15.48;11.85;;;9.40;99.90;;;;;;5091716;28;20407;-69
2022/09/29 05:41:21;;;;;;;17.17;10.82;;;9.40;99.90;;;;;;5092188;28;20191;-70
2022/09/29 05:43:52;;;;;;;12.97;10.17;;;9.40;99.90;;;;;;5092197;28;20266;-69
2022/09/29 05:46:21;;;;;;;12.93;10.40;;;9.40;99.90;;;;;;5092441;28;20407;-70
2022/09/29 05:48:51;;;;;;;21.60;11.40;;;9.30;99.90;;;;;;5091773;28;20578;-69
2022/09/29 05:51:22;;;;;;;15.13;9.93;;;9.30;99.90;;;;;;5074629;28;20413;-69
2022/09/29 05:53:51;;;;;;;18.67;11.40;;;9.30;99.90;;;;;;5088134;28;20413;-70
2022/09/29 05:56:22;;;;;;;18.20;12.33;;;9.40;99.90;;;;;;5187452;22;21833;-70
2022/09/29 05:58:51;;;;;;;16.13;10.50;;;9.40;99.90;;;;;;5026450;28;20406;-70
2022/09/29 06:01:22;;;;;;;17.37;11.50;;;9.40;99.90;;;;;;5014374;28;20419;-70
2022/09/29 06:03:54;;;;;;;15.70;11.47;;;9.50;99.90;;;;;;5034752;28;20439;-69
2022/09/29 06:06:26;;;;;;;16.80;12.67;;;9.50;99.90;;;;;;5032037;28;20510;-69
2022/09/29 06:08:56;;;;;;;16.70;11.10;;;9.60;99.90;;;;;;5013953;28;20752;-71
2022/09/29 06:11:27;;;;;;;18.70;10.37;;;9.60;99.90;;;;;;5105587;22;20463;-70
2022/09/29 06:13:56;;;;;;;21.50;12.47;;;9.70;99.90;;;;;;5009626;28;20411;-70
2022/09/29 06:16:26;;;;;;;13.70;10.07;;;9.70;99.90;;;;;;5000782;28;20965;-72
2022/09/29 06:18:55;;;;;;;15.33;11.10;;;9.70;99.90;;;;;;5010403;28;20471;-72
2022/09/29 06:21:26;;;;;;;18.60;11.47;;;9.70;99.90;;;;;;5004320;28;20423;-69
2022/09/29 06:23:56;;;;;;;16.03;12.00;;;9.80;99.90;;;;;;5010655;28;20403;-69
2022/09/29 06:26:27;;;;;;;16.43;12.20;;;9.90;99.90;;;;;;5012970;28;20904;-70
2022/09/29 06:28:57;;;;;;;22.13;11.90;;;9.90;99.90;;;;;;5005440;28;20417;-70
2022/09/29 06:31:27;;;;;;;15.33;11.30;;;9.90;99.90;;;;;;5009129;28;20453;-71
2022/09/29 06:33:57;;;;;;;16.53;11.40;;;9.90;99.90;;;;;;5006663;28;20439;-70
2022/09/29 06:39:17;;;;;;;20.47;11.30;;;10.10;99.90;;;;;;5009751;28;20440;-70
2022/09/29 06:41:50;;;;;;;15.83;10.50;;;10.30;99.90;;;;;;5012539;28;20445;-70
2022/09/29 06:44:20;;;;;;;16.20;11.73;;;10.30;99.90;;;;;;5012852;28;20495;-70
2022/09/29 06:46:49;;;;;;;17.30;11.87;;;10.30;99.90;;;;;;5012576;28;20429;-71
2022/09/29 06:49:18;;;;;;;15.27;11.57;;;10.30;99.90;;;;;;5012559;28;20433;-70
2022/09/29 06:52:16;;;;;;;16.33;11.73;;;10.40;99.90;;;;;;5010904;28;20449;-71
2022/09/29 06:54:48;;;;;;;17.20;12.57;;;10.50;99.90;;;;;;5011864;28;20432;-69
2022/09/29 06:57:17;;;;;;;18.07;12.50;;;10.50;99.90;;;;;;5012541;28;20467;-70
2022/09/29 06:59:46;;;;;;;14.57;11.90;;;10.60;99.90;;;;;;5012244;28;20443;-71
2022/09/29 07:02:14;;;;;;;17.10;11.03;;;10.50;99.90;;;;;;5012057;28;20403;-71
2022/09/29 07:04:42;;;;;;;15.07;10.87;;;10.50;99.90;;;;;;5012569;28;20987;-70
2022/09/29 07:07:13;;;;;;;18.30;11.37;;;10.60;99.90;;;;;;5011909;28;20463;-72
2022/09/29 07:09:44;;;;;;;13.40;10.30;;;10.70;99.90;;;;;;5010775;28;20831;-71
2022/09/29 07:12:12;;;;;;;14.57;9.37;;;10.90;99.90;;;;;;5012137;28;20411;-69
2022/09/29 07:14:40;;;;;;;19.67;10.77;;;11.10;99.90;;;;;;5004159;28;20431;-70
2022/09/29 07:17:09;;;;;;;18.60;10.57;;;11.10;99.90;;;;;;5008530;28;20400;-70
2022/09/29 07:19:37;;;;;;;17.33;9.53;;;11.20;99.90;;;;;;5010074;28;20752;-67
2022/09/29 07:22:08;;;;;;;17.83;10.63;;;11.10;99.90;;;;;;5008512;28;20782;-71
2022/09/29 07:24:36;;;;;;;22.90;11.97;;;11.20;53.70;;;;;;5011807;28;20412;-70
2022/09/29 07:27:08;;;;;;;16.13;10.53;;;11.10;1.00;;;;;;5011893;28;20473;-70
2022/09/29 07:29:36;;;;;;;13.30;9.17;;;11.00;1.00;;;;;;5011664;28;20528;-71
2022/09/29 07:32:06;;;;;;;16.63;10.00;;;11.00;1.00;;;;;;5013421;28;20418;-70
2022/09/29 07:34:46;;;;;;;17.80;11.73;;;11.10;1.00;;;;;;5015672;28;20440;-72
2022/09/29 07:37:14;;;;;;;19.47;10.97;;;11.00;1.00;;;;;;5015582;28;20432;-71
2022/09/29 07:39:43;;;;;;;15.17;10.40;;;11.10;1.00;;;;;;5015521;28;20407;-69
2022/09/29 07:42:12;;;;;;;18.67;10.73;;;11.10;1.00;;;;;;5015309;28;20411;-71
2022/09/29 07:44:41;;;;;;;21.57;11.97;;;11.30;99.90;;;;;;5007383;28;20415;-70
2022/09/29 07:47:09;;;;;;;19.80;12.40;;;11.30;99.90;;;;;;5018963;28;20408;-71
2022/09/29 07:49:38;;;;;;;21.10;11.77;;;11.40;99.90;;;;;;5032436;28;20438;-72
2022/09/29 07:52:07;;;;;;;19.40;10.67;;;11.50;99.90;;;;;;5039681;28;20420;-72
2022/09/29 07:54:35;;;;;;;30.83;11.83;;;11.70;99.90;;;;;;5040079;28;20422;-71
2022/09/29 07:57:03;;;;;;;16.30;11.07;;;11.60;99.90;;;;;;5039817;28;20404;-69
2022/09/29 07:59:33;;;;;;;14.47;9.70;;;11.50;99.90;;;;;;5038601;28;20522;-71
2022/09/29 08:02:03;;;;;;;20.20;11.10;;;11.60;99.90;;;;;;5039714;28;20427;-73
2022/09/29 08:04:31;;;;;;;22.80;13.27;;;11.60;99.90;;;;;;5039913;28;20488;-73
2022/09/29 08:06:59;;;;;;;16.10;10.07;;;11.80;99.90;;;;;;5039970;28;20398;-75
2022/09/29 08:09:28;;;;;;;15.73;11.03;;;11.80;99.90;;;;;;5025914;28;20474;-70
2022/09/29 08:12:07;;;;;;;14.20;10.63;;;11.80;99.90;;;;;;5014582;28;20535;-69
2022/09/29 08:14:38;;;;;;;16.40;12.17;;;11.80;99.90;;;;;;5014966;28;20444;-70
2022/09/29 08:17:11;;;;;;;14.37;11.00;;;12.10;99.90;;;;;;5008687;28;20440;-69
2022/09/29 08:19:39;;;;;;;13.57;9.43;;;12.00;99.90;;;;;;5008738;28;20464;-70
2022/09/29 08:22:08;;;;;;;20.70;10.83;;;12.00;99.90;;;;;;5014922;28;20404;-71
2022/09/29 08:24:39;;;;;;;15.93;10.07;;;11.90;99.90;;;;;;5007889;28;20468;-72
2022/09/29 08:27:07;;;;;;;15.80;11.17;;;12.30;99.90;;;;;;5014356;28;20423;-68
2022/09/29 08:29:47;;;;;;;16.83;12.93;;;12.20;99.90;;;;;;5013711;28;20511;-72
2022/09/29 08:32:16;;;;;;;21.03;12.47;;;12.10;99.90;;;;;;5014216;28;20433;-72
2022/09/29 08:34:44;;;;;;;13.23;10.37;;;12.10;99.90;;;;;;5015171;28;20940;-72
2022/09/29 08:37:12;;;;;;;16.13;10.90;;;12.40;99.90;;;;;;5015655;28;20425;-73
2022/09/29 08:39:41;;;;;;;17.70;12.43;;;12.40;99.90;;;;;;5014400;28;20823;-71
2022/09/29 08:42:19;;;;;;;17.57;12.07;;;12.40;99.90;;;;;;5011527;28;20460;-71
2022/09/29 08:44:55;;;;;;;18.33;12.43;;;12.70;99.90;;;;;;5014816;28;20963;-70
2022/09/29 08:47:42;;;;;;;19.47;12.53;;;12.60;99.90;;;;;;5016819;28;20519;-70
2022/09/29 08:50:20;;;;;;;16.47;11.17;;;12.90;99.90;;;;;;5015061;28;20452;-72
2022/09/29 08:52:53;;;;;;;19.07;11.83;;;13.30;99.90;;;;;;5013955;28;20977;-72
2022/09/29 08:55:26;;;;;;;17.40;12.20;;;13.30;92.40;;;;;;5016504;28;20404;-71
2022/09/29 08:57:58;;;;;;;18.37;12.17;;;13.50;85.00;;;;;;5015721;28;20774;-71
2022/09/29 09:00:40;;;;;;;23.17;13.53;;;13.40;75.90;;;;;;5003661;28;20482;-73
2022/09/29 09:03:25;;;;;;;18.00;11.20;;;13.40;77.40;;;;;;5015016;28;20436;-72
2022/09/29 09:06:14;;;;;;;15.00;11.47;;;13.40;75.80;;;;;;5011859;28;20433;-72
2022/09/29 09:08:57;;;;;;;16.40;12.13;;;13.60;73.80;;;;;;5009390;28;20473;-71
2022/09/29 09:11:40;;;;;;;19.27;12.37;;;13.70;67.20;;;;;;5016943;28;20464;-71
2022/09/29 09:14:21;;;;;;;16.63;11.80;;;13.60;63.10;;;;;;5010119;28;20873;-71
2022/09/29 09:17:00;;;;;;;15.57;11.93;;;13.90;58.40;;;;;;5014482;28;20407;-72
2022/09/29 09:19:55;;;;;;;13.23;10.90;;;13.90;55.90;;;;;;5014146;28;20468;-70
2022/09/29 09:22:25;;;;;;;17.60;12.20;;;14.10;51.10;;;;;;4988957;28;20431;-72
2022/09/29 09:24:58;;;;;;;19.77;12.90;;;14.00;43.70;;;;;;5007517;28;20436;-73
2022/09/29 09:27:32;;;;;;;17.80;13.37;;;14.00;44.90;;;;;;5013954;28;20825;-70
2022/09/29 09:30:05;;;;;;;14.63;10.63;;;14.00;42.70;;;;;;5013048;28;20456;-70
2022/09/29 09:32:42;;;;;;;18.83;11.50;;;13.80;43.20;;;;;;5012729;28;21031;-70
2022/09/29 09:35:26;;;;;;;19.53;12.33;;;14.00;45.10;;;;;;5013491;28;20479;-70
2022/09/29 09:37:58;;;;;;;18.07;10.97;;;14.00;44.70;;;;;;5013578;28;20402;-71
2022/09/29 09:40:30;;;;;;;17.23;11.57;;;13.90;38.30;;;;;;5014575;28;20819;-72
2022/09/29 09:43:06;;;;;;;13.00;10.30;;;13.80;39.60;;;;;;5013483;28;20912;-73
2022/09/29 09:45:39;;;;;;;12.47;10.87;;;13.80;39.10;;;;;;5001035;28;20523;-71
2022/09/29 09:48:15;;;;;;;12.60;10.57;;;14.00;37.50;;;;;;5013568;28;20454;-72
2022/09/29 09:50:50;;;;;;;15.77;11.03;;;14.10;34.80;;;;;;5013317;28;21062;-72
2022/09/29 09:53:22;;;;;;;18.10;10.50;;;14.10;34.10;;;;;;5013749;28;20436;-72
2022/09/29 09:56:01;;;;;;;17.60;11.13;;;13.80;31.80;;;;;;5013706;28;20469;-71
2022/09/29 09:58:40;;;;;;;15.73;11.33;;;13.50;30.90;;;;;;5014581;28;20437;-71
2022/09/29 10:01:11;;;;;;;17.50;10.53;;;13.60;35.10;;;;;;5015819;28;20457;-72
2022/09/29 10:03:41;;;;;;;13.73;10.87;;;13.50;30.70;;;;;;5009378;28;20527;-72
2022/09/29 10:06:09;;;;;;;18.17;12.20;;;13.60;35.40;;;;;;5008892;28;20544;-74
2022/09/29 10:08:41;;;;;;;14.60;11.00;;;13.80;31.60;;;;;;5009709;28;20827;-71
2022/09/29 10:11:26;;;;;;;15.97;10.13;;;13.80;31.70;;;;;;5020557;28;20484;-70
2022/09/29 10:14:00;;;;;;;10.10;9.10;;;14.00;27.50;;;;;;5023531;28;20433;-73
2022/09/29 10:16:35;;;;;;;11.47;9.07;;;14.40;25.90;;;;;;5027791;28;20466;-72
2022/09/29 10:19:05;;;;;;;9.67;7.10;;;14.70;20.40;;;;;;5030310;28;20464;-71
2022/09/29 10:21:38;;;;;;;10.37;7.90;;;14.50;13.90;;;;;;5027860;28;20449;-72
2022/09/29 10:24:21;;;;;;;10.70;7.13;;;14.40;13.50;;;;;;5028142;28;20433;-72
2022/09/29 10:26:52;;;;;;;8.67;6.20;;;14.70;12.70;;;;;;5029114;28;20428;-72
2022/09/29 10:29:31;;;;;;;6.83;5.97;;;14.80;9.90;;;;;;5030733;28;20433;-73
2022/09/29 10:32:04;;;;;;;8.63;6.70;;;15.10;8.30;;;;;;5030677;28;20396;-74
2022/09/29 10:34:36;;;;;;;8.10;6.70;;;14.90;6.80;;;;;;5029772;28;20444;-74
2022/09/29 10:37:07;;;;;;;12.20;7.00;;;15.00;6.60;;;;;;5033013;28;20407;-71
2022/09/29 10:39:42;;;;;;;8.23;7.23;;;15.00;4.50;;;;;;5016890;28;20823;-71
2022/09/29 10:42:26;;;;;;;7.03;5.90;;;15.40;3.30;;;;;;5012651;28;20433;-72
2022/09/29 10:45:01;;;;;;;7.40;5.40;;;15.40;1.00;;;;;;5010727;28;20448;-71
2022/09/29 10:47:29;;;;;;;7.90;5.10;;;15.40;1.00;;;;;;5008984;28;20855;-70
2022/09/29 10:50:17;;;;;;;8.27;5.00;;;15.60;1.00;;;;;;5012050;28;20443;-74
2022/09/29 10:52:50;;;;;;;8.00;5.87;;;15.50;1.00;;;;;;5012139;28;20444;-70
2022/09/29 10:55:21;;;;;;;5.53;4.83;;;15.50;1.00;;;;;;5012379;28;20400;-71
2022/09/29 10:57:51;;;;;;;9.73;5.53;;;15.50;1.00;;;;;;5009631;28;20433;-70
2022/09/29 11:00:33;;;;;;;8.00;5.73;;;15.50;1.00;;;;;;5005265;28;20480;-70
2022/09/29 11:03:19;;;;;;;6.70;5.10;;;15.60;1.00;;;;;;5010247;28;20872;-71
2022/09/29 11:05:54;;;;;;;11.37;5.83;;;15.60;1.00;;;;;;5008094;28;20432;-70
2022/09/29 11:08:26;;;;;;;4.77;4.03;;;15.50;1.00;;;;;;5012413;28;20432;-69
2022/09/29 11:11:05;;;;;;;4.63;3.73;;;15.20;1.00;;;;;;5017978;28;20527;-72
2022/09/29 11:17:23;;;;;;;4.80;3.97;;;14.90;1.00;;;;;;4977203;28;20434;-71
2022/09/29 11:19:52;;;;;;;6.03;4.53;;;14.60;1.00;;;;;;5016485;28;20469;-72
2022/09/29 11:22:56;;;;;;;4.90;4.40;;;14.80;1.00;;;;;;5016288;28;20417;-71
2022/09/29 11:25:40;;;;;;;6.53;5.43;;;14.60;1.00;;;;;;5009892;28;20447;-72
2022/09/29 11:28:46;;;;;;;6.83;5.30;;;14.20;1.00;;;;;;5012261;28;20437;-71
2022/09/29 11:31:39;;;;;;;5.73;4.43;;;14.00;1.00;;;;;;5005602;28;20545;-70
2022/09/29 11:34:42;;;;;;;6.10;4.37;;;14.30;1.00;;;;;;5012950;28;20836;-72
2022/09/29 11:37:27;;;;;;;6.37;5.07;;;14.30;1.00;;;;;;5011271;28;20421;-72
2022/09/29 11:40:08;;;;;;;6.80;5.23;;;14.60;1.00;;;;;;5007118;28;20450;-72
2022/09/29 11:42:55;;;;;;;4.63;4.13;;;14.70;1.00;;;;;;5015595;28;20403;-73
2022/09/29 11:45:37;;;;;;;6.00;3.60;;;14.90;1.00;;;;;;5010688;28;20495;-71
2022/09/29 11:48:41;;;;;;;4.23;3.83;;;15.20;1.00;;;;;;5009430;28;20424;-71
2022/09/29 11:51:22;;;;;;;4.33;3.70;;;15.00;1.00;;;;;;5011183;28;20430;-71
2022/09/29 11:54:02;;;;;;;5.97;4.50;;;15.30;1.00;;;;;;5015414;28;20445;-71
2022/09/29 11:56:44;;;;;;;6.00;4.57;;;15.20;1.00;;;;;;5015315;28;20429;-71
2022/09/29 11:59:50;;;;;;;5.20;3.80;;;15.10;1.00;;;;;;5015341;28;20495;-71
2022/09/29 12:02:46;;;;;;;5.83;4.23;;;15.00;1.00;;;;;;5010131;28;20510;-72
2022/09/29 12:05:22;;;;;;;6.47;4.10;;;15.10;1.00;;;;;;5010686;28;20540;-71
2022/09/29 12:08:04;;;;;;;7.60;6.90;;;15.30;1.00;;;;;;5015224;28;20553;-72
2022/09/29 12:10:42;;;;;;;10.03;4.13;;;15.40;1.00;;;;;;5027556;22;20496;-69
2022/09/29 12:13:22;;;;;;;6.57;4.40;;;15.40;1.00;;;;;;5051019;28;20421;-70
2022/09/29 12:15:56;;;;;;;5.40;4.33;;;15.40;1.00;;;;;;5040292;28;20443;-70
2022/09/29 12:18:31;;;;;;;6.53;5.20;;;15.40;1.00;;;;;;5050475;28;20438;-68
2022/09/29 12:21:01;;;;;;;4.80;4.30;;;15.70;1.00;;;;;;5048801;28;20433;-68
2022/09/29 12:23:33;;;;;;;6.33;5.17;;;15.50;1.00;;;;;;5045993;28;20518;-71
2022/09/29 12:26:07;;;;;;;7.00;4.33;;;15.40;1.00;;;;;;5046038;28;20454;-69
2022/09/29 12:28:43;;;;;;;7.83;5.00;;;15.40;1.00;;;;;;5049515;28;20428;-69
2022/09/29 12:31:16;;;;;;;6.47;3.87;;;15.20;1.00;;;;;;5050465;28;20390;-69
2022/09/29 12:33:49;;;;;;;4.20;3.63;;;15.40;1.00;;;;;;5040461;28;20469;-70
2022/09/29 12:36:44;;;;;;;6.00;4.40;;;15.30;1.00;;;;;;5051334;28;20451;-69
2022/09/29 12:39:27;;;;;;;4.20;3.53;;;15.10;1.00;;;;;;5040224;28;20428;-68
2022/09/29 12:42:04;;;;;;;6.63;3.60;;;15.30;1.00;;;;;;5045392;28;20456;-69
2022/09/29 12:44:40;;;;;;;12.03;4.20;;;15.30;1.00;;;;;;5051904;28;20961;-69
2022/09/29 12:47:18;;;;;;;4.30;3.90;;;15.50;1.00;;;;;;5032657;28;20447;-70
2022/09/29 12:50:00;;;;;;;3.63;3.30;;;15.70;1.00;;;;;;5042715;28;20430;-69
2022/09/29 12:52:37;;;;;;;7.47;3.50;;;15.60;1.00;;;;;;5042963;28;20431;-69
2022/09/29 12:55:15;;;;;;;5.07;4.10;;;15.70;1.00;;;;;;5048438;28;20892;-68
2022/09/29 12:57:48;;;;;;;4.73;3.90;;;15.80;1.00;;;;;;5051923;28;20497;-71
2022/09/29 13:00:18;;;;;;;5.07;3.93;;;15.90;1.00;;;;;;5045879;28;20438;-69
2022/09/29 13:03:15;;;;;;;4.33;3.10;;;15.90;1.00;;;;;;5033769;28;20431;-69
2022/09/29 13:06:20;;;;;;;4.67;2.57;;;16.00;1.00;;;;;;5035175;28;20568;-68
2022/09/29 13:09:23;;;;;;;5.20;2.93;;;16.10;1.00;;;;;;5050145;28;20432;-70
2022/09/29 13:12:03;;;;;;;5.30;2.90;;;16.00;1.00;;;;;;5031510;28;20877;-69
2022/09/29 13:15:03;;;;;;;4.33;3.30;;;15.80;1.00;;;;;;5051931;28;20454;-71
2022/09/29 13:17:45;;;;;;;5.60;4.77;;;15.80;1.00;;;;;;5045765;28;20435;-69
2022/09/29 13:20:31;;;;;;;5.63;4.23;;;15.60;1.00;;;;;;5032062;28;20419;-70
2022/09/29 13:23:33;;;;;;;5.33;4.20;;;15.30;1.00;;;;;;5032255;28;20423;-70
2022/09/29 13:26:32;;;;;;;6.40;5.50;;;15.40;1.00;;;;;;5038912;28;20497;-69